createdAt,value
2024-01-05T00:00:31.147Z,95000.47
2024-01-05T00:01:32.733Z,94996.00
2024-01-05T00:02:34.220Z,94996.00
2024-01-05T00:03:35.989Z,94995.84
2024-01-05T00:04:37.602Z,94998.16
2024-01-05T00:05:40.809Z,94996.97
2024-01-05T00:06:42.691Z,94995.00
2024-01-05T00:07:44.488Z,94994.03
2024-01-05T00:08:46.798Z,94991.22
2024-01-05T00:09:48.287Z,94984.47
2024-01-05T00:10:49.934Z,94993.34
2024-01-05T00:11:52.613Z,94988.28
2024-01-05T00:12:54.149Z,94984.81
2024-01-05T00:13:56.406Z,94987.47
2024-01-05T00:14:57.905Z,94982.53
2024-01-05T00:15:59.411Z,94988.97
2024-01-05T00:17:01.131Z,94987.13
2024-01-05T00:18:02.693Z,94979.25
2024-01-05T00:19:04.658Z,94978.25
2024-01-05T00:20:08.914Z,94981.06
2024-01-05T00:21:18.894Z,94980.88
2024-01-05T00:22:20.679Z,94980.53
2024-01-05T00:23:22.110Z,94983.66
2024-01-05T00:24:23.940Z,94982.03
2024-01-05T00:25:25.444Z,94979.22
2024-01-05T00:26:27.025Z,94976.22
2024-01-05T00:27:29.145Z,94974.44
2024-01-05T00:28:30.623Z,94991.06
2024-01-05T00:29:32.045Z,94985.78
2024-01-05T00:30:36.932Z,94986.59
2024-01-05T00:31:38.692Z,94986.13
2024-01-05T00:32:40.439Z,94981.31
2024-01-05T00:33:43.090Z,94979.03
2024-01-05T00:34:44.821Z,94975.25
2024-01-05T00:35:46.299Z,94976.41
2024-01-05T00:36:48.061Z,94979.03
2024-01-05T00:37:49.769Z,94976.59
2024-01-05T00:38:51.273Z,94971.13
2024-01-05T00:39:52.856Z,94977.72
2024-01-05T00:40:54.411Z,94977.72
2024-01-05T00:41:56.145Z,94985.56
2024-01-05T00:42:57.593Z,94979.78
2024-01-05T00:43:59.101Z,94990.00
2024-01-05T00:45:00.629Z,94980.94
2024-01-05T00:46:02.208Z,94990.78
2024-01-05T00:47:03.770Z,94984.53
2024-01-05T00:48:05.849Z,94987.78
2024-01-05T00:49:07.595Z,94985.81
2024-01-05T00:50:09.317Z,94986.47
2024-01-05T00:51:10.853Z,94989.09
2024-01-05T00:52:14.151Z,94994.38
2024-01-05T00:53:15.815Z,94987.75
2024-01-05T00:54:17.456Z,94979.69
2024-01-05T00:55:19.217Z,94978.88
2024-01-05T00:56:20.698Z,94982.50
2024-01-05T00:57:22.433Z,94981.16
2024-01-05T00:58:24.014Z,94973.91
2024-01-05T00:59:25.524Z,94983.69
2024-01-05T01:00:27.107Z,94988.44
2024-01-05T01:01:28.886Z,94988.09
2024-01-05T01:02:30.430Z,94987.09
2024-01-05T01:03:31.998Z,94995.00
2024-01-05T01:04:33.707Z,94993.03
2024-01-05T01:05:35.355Z,94992.03
2024-01-05T01:06:36.894Z,94984.13
2024-01-05T01:07:40.593Z,94984.13
2024-01-05T01:08:42.323Z,94979.03
2024-01-05T01:09:43.933Z,94981.19
2024-01-05T01:10:45.445Z,94975.91
2024-01-05T01:11:50.470Z,94977.88
2024-01-05T01:12:52.191Z,94979.72
2024-01-05T01:13:53.722Z,94978.06
2024-01-05T01:14:55.374Z,94973.63
2024-01-05T01:15:56.908Z,94972.63
2024-01-05T01:16:58.324Z,94968.19
2024-01-05T01:17:59.867Z,94972.00
2024-01-05T01:19:01.593Z,94975.09
2024-01-05T01:20:04.334Z,94973.28
2024-01-05T01:21:05.990Z,94973.28
2024-01-05T01:22:07.515Z,94977.09
2024-01-05T01:23:09.005Z,94981.38
2024-01-05T01:24:10.597Z,94974.63
2024-01-05T01:25:12.239Z,94974.28
2024-01-05T01:26:13.759Z,94969.97
2024-01-05T01:27:16.958Z,94981.19
2024-01-05T01:28:18.460Z,94967.03
2024-01-05T01:29:19.921Z,94965.38
2024-01-05T01:30:21.795Z,94963.38
2024-01-05T01:31:23.450Z,94961.56
2024-01-05T01:32:24.947Z,94960.91
2024-01-05T01:33:26.572Z,94956.94
2024-01-05T01:34:28.167Z,94957.78
2024-01-05T01:35:29.802Z,94952.69
2024-01-05T01:36:31.929Z,94947.56
2024-01-05T01:37:33.371Z,94948.41
2024-01-05T01:38:34.876Z,94940.13
2024-01-05T01:39:36.353Z,94944.78
2024-01-05T01:40:38.006Z,94947.22
2024-01-05T01:41:39.436Z,94939.50
2024-01-05T01:42:44.789Z,94942.13
2024-01-05T01:43:51.181Z,94930.56
2024-01-05T01:44:54.642Z,94933.03
2024-01-05T01:45:58.401Z,94937.31
2024-01-05T01:47:00.287Z,94928.22
2024-01-05T01:48:02.106Z,94927.06
2024-01-05T01:49:05.666Z,94914.50
2024-01-05T01:50:08.508Z,94911.56
2024-01-05T01:51:10.668Z,94907.81
2024-01-05T01:52:12.169Z,94907.94
2024-01-05T01:53:17.464Z,94909.09
2024-01-05T01:54:19.331Z,94910.41
2024-01-05T01:55:20.953Z,94908.34
2024-01-05T01:56:22.479Z,94904.47
2024-01-05T01:57:24.901Z,94902.84
2024-01-05T01:58:26.826Z,94894.91
2024-01-05T01:59:28.961Z,94902.66
2024-01-05T02:00:31.524Z,94899.53
2024-01-05T02:01:34.545Z,94898.25
2024-01-05T02:02:37.940Z,94896.97
2024-01-05T02:03:39.825Z,94900.25
2024-01-05T02:04:42.423Z,94898.22
2024-01-05T02:05:44.790Z,94893.25
2024-01-05T02:06:46.916Z,94904.78
2024-01-05T02:07:48.800Z,94895.19
2024-01-05T02:08:51.526Z,94898.06
2024-01-05T02:09:53.016Z,94889.81
2024-01-05T02:10:55.025Z,94894.91
2024-01-05T02:11:56.607Z,94900.81
2024-01-05T02:12:58.783Z,94900.91
2024-01-05T02:14:00.448Z,94901.56
2024-01-05T02:15:02.057Z,94897.72
2024-01-05T02:16:03.749Z,94890.09
2024-01-05T02:17:05.440Z,94886.38
2024-01-05T02:18:14.376Z,94892.28
2024-01-05T02:19:16.207Z,94894.09
2024-01-05T02:20:17.740Z,94896.66
2024-01-05T02:21:24.961Z,94894.19
2024-01-05T02:22:31.266Z,94900.47
2024-01-05T02:23:32.868Z,94894.75
2024-01-05T02:24:34.364Z,94885.19
2024-01-05T02:25:35.917Z,94877.09
2024-01-05T02:26:37.702Z,94872.97
2024-01-05T02:27:40.213Z,94881.56
2024-01-05T02:28:41.845Z,94876.47
2024-01-05T02:29:43.386Z,94878.91
2024-01-05T02:30:45.038Z,94884.38
2024-01-05T02:31:46.564Z,94878.25
2024-01-05T02:32:48.409Z,94872.16
2024-01-05T02:33:50.032Z,94875.81
2024-01-05T02:34:51.652Z,94874.53
2024-01-05T02:35:53.238Z,94870.25
2024-01-05T02:36:54.769Z,94869.72
2024-01-05T02:37:56.212Z,94863.97
2024-01-05T02:38:58.022Z,94866.63
2024-01-05T02:39:59.759Z,94873.72
2024-01-05T02:41:01.416Z,94878.34
2024-01-05T02:42:03.246Z,94873.44
2024-01-05T02:43:04.797Z,94877.97
2024-01-05T02:44:06.266Z,94881.28
2024-01-05T02:45:08.081Z,94877.25
2024-01-05T02:46:10.501Z,94880.16
2024-01-05T02:47:11.973Z,94880.16
2024-01-05T02:48:13.816Z,94881.88
2024-01-05T02:49:15.522Z,94882.97
2024-01-05T02:50:17.500Z,94873.41
2024-01-05T02:51:18.989Z,94871.41
2024-01-05T02:52:20.522Z,94874.94
2024-01-05T02:53:22.110Z,94856.94
2024-01-05T02:54:23.848Z,94862.06
2024-01-05T02:55:25.649Z,94852.13
2024-01-05T02:56:27.150Z,94847.63
2024-01-05T02:57:28.738Z,94853.66
2024-01-05T02:58:30.305Z,94843.00
2024-01-05T02:59:31.804Z,94845.75
2024-01-05T03:00:33.398Z,94844.50
2024-01-05T03:01:35.025Z,94841.53
2024-01-05T03:02:36.521Z,94846.94
2024-01-05T03:03:39.881Z,94855.06
2024-01-05T03:04:47.238Z,94853.41
2024-01-05T03:05:48.883Z,94862.91
2024-01-05T03:06:50.544Z,94859.81
2024-01-05T03:07:52.107Z,94864.44
2024-01-05T03:08:53.635Z,94857.78
2024-01-05T03:09:55.951Z,94855.94
2024-01-05T03:10:58.013Z,94861.41
2024-01-05T03:11:59.482Z,94854.13
2024-01-05T03:13:00.963Z,94851.53
2024-01-05T03:14:02.471Z,94849.34
2024-01-05T03:15:04.805Z,94846.25
2024-01-05T03:16:06.833Z,94839.72
2024-01-05T03:17:08.319Z,94846.63
2024-01-05T03:18:10.011Z,94851.31
2024-01-05T03:19:11.631Z,94838.59
2024-01-05T03:20:13.504Z,94834.97
2024-01-05T03:21:15.057Z,94837.22
2024-01-05T03:22:16.828Z,94833.75
2024-01-05T03:23:18.281Z,94829.84
2024-01-05T03:24:19.882Z,94825.69
2024-01-05T03:25:21.393Z,94822.03
2024-01-05T03:26:22.948Z,94814.88
2024-01-05T03:27:24.419Z,94818.91
2024-01-05T03:28:26.157Z,94826.25
2024-01-05T03:29:27.727Z,94816.56
2024-01-05T03:30:29.285Z,94811.00
2024-01-05T03:31:30.998Z,94821.09
2024-01-05T03:32:32.542Z,94817.38
2024-01-05T03:33:34.214Z,94825.13
2024-01-05T03:34:35.992Z,94818.31
2024-01-05T03:35:38.161Z,94819.72
2024-01-05T03:36:40.198Z,94814.34
2024-01-05T03:37:41.856Z,94817.94
2024-01-05T03:38:43.627Z,94812.66
2024-01-05T03:39:45.043Z,94815.50
2024-01-05T03:40:46.537Z,94813.03
2024-01-05T03:41:48.036Z,94815.81
2024-01-05T03:42:49.600Z,94809.34
2024-01-05T03:43:51.126Z,94806.00
2024-01-05T03:44:53.112Z,94811.91
2024-01-05T03:45:54.614Z,94809.50
2024-01-05T03:46:56.192Z,94810.75
2024-01-05T03:47:57.876Z,94816.50
2024-01-05T03:48:59.553Z,94815.03
2024-01-05T03:50:01.218Z,94815.50
2024-01-05T03:51:03.809Z,94818.94
2024-01-05T03:52:05.488Z,94814.44
2024-01-05T03:53:06.944Z,94812.00
2024-01-05T03:54:08.444Z,94819.13
2024-01-05T03:55:10.052Z,94812.47
2024-01-05T03:56:11.534Z,94816.16
2024-01-05T03:57:13.164Z,94815.09
2024-01-05T03:58:15.845Z,94817.50
2024-01-05T03:59:17.336Z,94817.28
2024-01-05T04:00:19.078Z,94815.09
2024-01-05T04:01:20.577Z,94818.63
2024-01-05T04:02:22.296Z,94812.94
2024-01-05T04:03:23.953Z,94815.44
2024-01-05T04:04:25.657Z,94812.78
2024-01-05T04:05:27.615Z,94810.94
2024-01-05T04:06:29.487Z,94805.06
2024-01-05T04:07:30.998Z,94815.00
2024-01-05T04:08:32.474Z,94812.19
2024-01-05T04:09:34.079Z,94817.44
2024-01-05T04:10:36.845Z,94814.81
2024-01-05T04:11:39.221Z,94813.41
2024-01-05T04:12:40.789Z,94805.06
2024-01-05T04:13:42.220Z,94804.81
2024-01-05T04:14:43.686Z,94807.47
2024-01-05T04:15:45.411Z,94801.31
2024-01-05T04:16:47.204Z,94795.38
2024-01-05T04:17:48.880Z,94796.44
2024-01-05T04:18:50.700Z,94791.53
2024-01-05T04:19:52.276Z,94792.53
2024-01-05T04:20:54.091Z,94790.59
2024-01-05T04:21:55.921Z,94786.72
2024-01-05T04:22:57.792Z,94786.31
2024-01-05T04:23:59.787Z,94783.00
2024-01-05T04:25:01.525Z,94784.03
2024-01-05T04:26:03.048Z,94785.22
2024-01-05T04:27:04.725Z,94784.22
2024-01-05T04:28:06.308Z,94776.94
2024-01-05T04:29:07.796Z,94781.59
2024-01-05T04:30:09.729Z,94773.03
2024-01-05T04:31:11.353Z,94772.19
2024-01-05T04:32:12.956Z,94782.75
2024-01-05T04:33:14.509Z,94776.19
2024-01-05T04:34:16.225Z,94776.91
2024-01-05T04:35:17.785Z,94780.69
2024-01-05T04:36:20.307Z,94774.38
2024-01-05T04:37:21.863Z,94771.75
2024-01-05T04:38:23.553Z,94777.22
2024-01-05T04:39:25.061Z,94783.50
2024-01-05T04:40:26.547Z,94780.00
2024-01-05T04:41:29.094Z,94779.97
2024-01-05T04:42:31.117Z,94781.16
2024-01-05T04:43:32.649Z,94772.25
2024-01-05T04:44:34.086Z,94780.16
2024-01-05T04:45:36.835Z,94779.75
2024-01-05T04:46:38.398Z,94774.44
2024-01-05T04:47:40.751Z,94770.69
2024-01-05T04:48:42.269Z,94778.63
2024-01-05T04:49:43.949Z,94768.72
2024-01-05T04:50:46.571Z,94768.09
2024-01-05T04:51:48.295Z,94770.91
2024-01-05T04:52:49.843Z,94768.41
2024-01-05T04:53:51.397Z,94764.38
2024-01-05T04:54:53.062Z,94771.81
2024-01-05T04:55:55.021Z,94759.53
2024-01-05T04:56:56.724Z,94761.94
2024-01-05T04:57:58.207Z,94762.22
2024-01-05T04:58:59.699Z,94758.59
2024-01-05T05:00:01.298Z,94764.88
2024-01-05T05:01:03.461Z,94763.19
2024-01-05T05:02:04.970Z,94766.69
2024-01-05T05:03:06.609Z,94758.34
2024-01-05T05:04:08.913Z,94750.19
2024-01-05T05:05:10.560Z,94760.38
2024-01-05T05:06:12.502Z,94757.50
2024-01-05T05:07:14.173Z,94757.69
2024-01-05T05:08:16.114Z,94753.03
2024-01-05T05:09:18.178Z,94759.19
2024-01-05T05:10:19.750Z,94754.94
2024-01-05T05:11:21.462Z,94762.06
2024-01-05T05:12:23.194Z,94759.78
2024-01-05T05:13:24.700Z,94755.53
2024-01-05T05:14:26.319Z,94764.22
2024-01-05T05:15:28.003Z,94758.94
2024-01-05T05:16:29.515Z,94758.34
2024-01-05T05:17:31.024Z,94765.41
2024-01-05T05:18:32.841Z,94760.28
2024-01-05T05:19:35.170Z,94767.88
2024-01-05T05:20:36.993Z,94770.97
2024-01-05T05:21:38.635Z,94764.28
2024-01-05T05:22:40.127Z,94764.78
2024-01-05T05:23:41.638Z,94760.28
2024-01-05T05:24:43.330Z,94765.38
2024-01-05T05:25:44.877Z,94760.47
2024-01-05T05:26:46.498Z,94753.78
2024-01-05T05:27:48.051Z,94748.28
2024-01-05T05:28:49.605Z,94744.88
2024-01-05T05:29:51.338Z,94738.75
2024-01-05T05:30:52.920Z,94742.75
2024-01-05T05:31:54.736Z,94734.63
2024-01-05T05:32:56.360Z,94737.63
2024-01-05T05:33:58.294Z,94732.78
2024-01-05T05:35:00.425Z,94731.97
2024-01-05T05:36:02.172Z,94732.34
2024-01-05T05:37:03.829Z,94733.38
2024-01-05T05:38:05.384Z,94733.16
2024-01-05T05:39:06.915Z,94738.47
2024-01-05T05:40:10.203Z,94736.78
2024-01-05T05:41:11.839Z,94742.28
2024-01-05T05:42:13.349Z,94737.81
2024-01-05T05:43:14.917Z,94740.75
2024-01-05T05:44:16.372Z,94734.66
2024-01-05T05:45:17.936Z,94739.91
2024-01-05T05:46:19.627Z,94745.06
2024-01-05T05:47:21.140Z,94750.34
2024-01-05T05:48:23.149Z,94752.53
2024-01-05T05:49:24.787Z,94755.78
2024-01-05T05:50:26.379Z,94749.09
2024-01-05T05:51:27.917Z,94752.97
2024-01-05T05:52:30.978Z,94755.84
2024-01-05T05:53:32.619Z,94758.13
2024-01-05T05:54:34.259Z,94763.16
2024-01-05T05:55:35.753Z,94755.00
2024-01-05T05:56:37.458Z,94751.09
2024-01-05T05:57:42.883Z,94756.19
2024-01-05T05:58:44.380Z,94759.44
2024-01-05T05:59:45.838Z,94756.47
2024-01-05T06:00:47.468Z,94757.03
2024-01-05T06:01:49.041Z,94761.38
2024-01-05T06:02:50.907Z,94755.69
2024-01-05T06:03:52.509Z,94759.13
2024-01-05T06:04:54.063Z,94757.91
2024-01-05T06:05:55.863Z,94757.91
2024-01-05T06:06:58.112Z,94753.84
2024-01-05T06:07:59.747Z,94748.34
2024-01-05T06:09:01.488Z,94750.78
2024-01-05T06:10:03.803Z,94759.34
2024-01-05T06:11:05.522Z,94755.91
2024-01-05T06:12:07.755Z,94756.69
2024-01-05T06:13:09.719Z,94755.13
2024-01-05T06:14:11.241Z,94756.31
2024-01-05T06:15:13.062Z,94754.03
2024-01-05T06:16:15.121Z,94753.28
2024-01-05T06:17:16.547Z,94752.44
2024-01-05T06:18:18.099Z,94752.97
2024-01-05T06:19:20.363Z,94761.13
2024-01-05T06:20:21.947Z,94761.97
2024-01-05T06:21:23.707Z,94765.41
2024-01-05T06:22:25.371Z,94766.50
2024-01-05T06:23:27.027Z,94771.97
2024-01-05T06:24:30.144Z,94770.50
2024-01-05T06:25:31.689Z,94758.69
2024-01-05T06:26:33.182Z,94769.06
2024-01-05T06:27:38.979Z,94771.53
2024-01-05T06:28:41.134Z,94776.81
2024-01-05T06:29:42.878Z,94770.56
2024-01-05T06:30:44.913Z,94770.75
2024-01-05T06:31:47.194Z,94767.28
2024-01-05T06:32:48.915Z,94766.47
2024-01-05T06:33:50.473Z,94761.00
2024-01-05T06:34:51.990Z,94754.91
2024-01-05T06:35:53.805Z,94764.47
2024-01-05T06:36:55.512Z,94761.81
2024-01-05T06:37:56.977Z,94769.34
2024-01-05T06:38:58.481Z,94765.50
2024-01-05T06:40:00.014Z,94761.19
2024-01-05T06:41:01.494Z,94764.06
2024-01-05T06:42:03.141Z,94767.09
2024-01-05T06:43:04.634Z,94769.59
2024-01-05T06:44:06.104Z,94757.16
2024-01-05T06:45:08.434Z,94760.41
2024-01-05T06:46:09.965Z,94756.72
2024-01-05T06:47:11.427Z,94759.34
2024-01-05T06:48:13.080Z,94758.13
2024-01-05T06:49:14.746Z,94754.03
2024-01-05T06:50:16.857Z,94758.56
2024-01-05T06:51:18.489Z,94765.06
2024-01-05T06:52:20.244Z,94762.81
2024-01-05T06:53:21.774Z,94766.47
2024-01-05T06:54:23.311Z,94763.00
2024-01-05T06:55:24.717Z,94768.88
2024-01-05T06:56:28.619Z,94770.28
2024-01-05T06:57:32.741Z,94765.03
2024-01-05T06:58:35.222Z,94767.47
2024-01-05T06:59:38.985Z,94768.88
2024-01-05T07:00:40.580Z,94767.09
2024-01-05T07:01:42.496Z,94764.88
2024-01-05T07:02:44.345Z,94772.19
2024-01-05T07:03:46.008Z,94773.84
2024-01-05T07:04:47.683Z,94772.56
2024-01-05T07:05:49.736Z,94779.50
2024-01-05T07:06:51.228Z,94779.16
2024-01-05T07:07:53.597Z,94781.75
2024-01-05T07:08:55.164Z,94779.94
2024-01-05T07:09:56.747Z,94769.16
2024-01-05T07:10:58.217Z,94773.81
2024-01-05T07:12:00.785Z,94776.66
2024-01-05T07:13:02.625Z,94765.41
2024-01-05T07:14:04.328Z,94759.31
2024-01-05T07:15:06.982Z,94756.13
2024-01-05T07:16:18.848Z,94769.16
2024-01-05T07:17:20.287Z,94764.03
2024-01-05T07:18:22.015Z,94765.63
2024-01-05T07:19:23.823Z,94764.78
2024-01-05T07:20:25.360Z,94764.97
2024-01-05T07:21:27.089Z,94761.69
2024-01-05T07:22:28.593Z,94765.19
2024-01-05T07:23:30.036Z,94770.09
2024-01-05T07:24:31.635Z,94771.13
2024-01-05T07:25:33.810Z,94777.22
2024-01-05T07:26:35.736Z,94768.84
2024-01-05T07:27:38.197Z,94770.91
2024-01-05T07:28:39.749Z,94767.09
2024-01-05T07:29:41.209Z,94769.97
2024-01-05T07:30:42.764Z,94773.03
2024-01-05T07:31:44.543Z,94771.75
2024-01-05T07:32:46.279Z,94766.63
2024-01-05T07:33:48.156Z,94767.28
2024-01-05T07:34:49.618Z,94768.09
2024-01-05T07:35:51.069Z,94774.16
2024-01-05T07:36:52.641Z,94779.59
2024-01-05T07:37:54.570Z,94778.00
2024-01-05T07:39:00.157Z,94770.09
2024-01-05T07:40:01.733Z,94770.75
2024-01-05T07:41:03.585Z,94775.59
2024-01-05T07:42:05.537Z,94765.41
2024-01-05T07:43:07.075Z,94772.91
2024-01-05T07:44:08.959Z,94763.59
2024-01-05T07:45:10.599Z,94769.28
2024-01-05T07:46:12.088Z,94772.16
2024-01-05T07:47:13.596Z,94761.63
2024-01-05T07:48:15.149Z,94764.63
2024-01-05T07:49:16.819Z,94761.38
2024-01-05T07:50:19.045Z,94760.31
2024-01-05T07:51:20.732Z,94758.28
2024-01-05T07:52:22.316Z,94760.88
2024-01-05T07:53:24.102Z,94764.53
2024-01-05T07:54:25.656Z,94763.28
2024-01-05T07:55:27.129Z,94761.63
2024-01-05T07:56:28.796Z,94762.47
2024-01-05T07:57:30.227Z,94762.53
2024-01-05T07:58:31.917Z,94760.56
2024-01-05T07:59:33.413Z,94763.25
2024-01-05T08:00:36.621Z,94765.38
2024-01-05T08:01:38.123Z,94763.78
2024-01-05T08:02:40.643Z,94762.94
2024-01-05T08:03:42.132Z,94764.38
2024-01-05T08:04:43.665Z,94763.78
2024-01-05T08:05:47.383Z,94758.09
2024-01-05T08:06:49.604Z,94758.94
2024-01-05T08:07:51.075Z,94761.16
2024-01-05T08:08:52.741Z,94760.56
2024-01-05T08:09:54.397Z,94759.75
2024-01-05T08:10:56.484Z,94762.41
2024-01-05T08:11:58.009Z,94761.38
2024-01-05T08:13:01.016Z,94763.22
2024-01-05T08:14:02.573Z,94758.34
2024-01-05T08:15:04.777Z,94757.56
2024-01-05T08:16:07.598Z,94757.56
2024-01-05T08:17:09.086Z,94762.06
2024-01-05T08:18:10.864Z,94757.19
2024-01-05T08:19:12.708Z,94756.41
2024-01-05T08:20:14.351Z,94756.19
2024-01-05T08:21:15.899Z,94752.94
2024-01-05T08:22:17.356Z,94759.66
2024-01-05T08:23:19.474Z,94756.19
2024-01-05T08:24:21.828Z,94756.59
2024-01-05T08:25:24.308Z,94750.47
2024-01-05T08:26:26.020Z,94752.13
2024-01-05T08:27:27.760Z,94749.69
2024-01-05T08:28:31.305Z,94757.00
2024-01-05T08:29:35.281Z,94753.78
2024-01-05T08:30:37.460Z,94746.84
2024-01-05T08:31:40.645Z,94755.59
2024-01-05T08:32:42.891Z,94750.69
2024-01-05T08:33:44.648Z,94752.94
2024-01-05T08:34:46.216Z,94755.38
2024-01-05T08:35:47.819Z,94753.34
2024-01-05T08:36:49.286Z,94754.16
2024-01-05T08:37:50.799Z,94751.72
2024-01-05T08:38:52.405Z,94749.03
2024-01-05T08:39:53.932Z,94750.66
2024-01-05T08:40:55.620Z,94759.19
2024-01-05T08:41:57.136Z,94759.78
2024-01-05T08:42:59.234Z,94754.06
2024-01-05T08:44:00.872Z,94751.66
2024-01-05T08:45:02.439Z,94753.88
2024-01-05T08:46:04.141Z,94758.81
2024-01-05T08:47:06.316Z,94758.59
2024-01-05T08:48:07.885Z,94761.25
2024-01-05T08:49:09.608Z,94757.78
2024-01-05T08:50:11.465Z,94756.56
2024-01-05T08:51:13.138Z,94755.31
2024-01-05T08:52:15.196Z,94759.22
2024-01-05T08:53:16.783Z,94761.88
2024-01-05T08:54:18.439Z,94754.75
2024-01-05T08:55:20.177Z,94764.13
2024-01-05T08:56:21.641Z,94753.50
2024-01-05T08:57:23.109Z,94759.78
2024-01-05T08:58:24.826Z,94763.06
2024-01-05T08:59:26.523Z,94759.19
2024-01-05T09:00:28.167Z,94766.31
2024-01-05T09:01:30.221Z,94763.47
2024-01-05T09:02:31.762Z,94759.38
2024-01-05T09:03:33.423Z,94756.53
2024-01-05T09:04:34.904Z,94760.84
2024-01-05T09:05:36.490Z,94759.63
2024-01-05T09:06:40.930Z,94761.09
2024-01-05T09:07:42.698Z,94761.47
2024-01-05T09:08:44.121Z,94764.38
2024-01-05T09:09:45.591Z,94760.09
2024-01-05T09:10:47.384Z,94765.22
2024-01-05T09:11:48.824Z,94766.63
2024-01-05T09:12:50.351Z,94758.88
2024-01-05T09:13:52.202Z,94757.88
2024-01-05T09:14:54.705Z,94762.56
2024-01-05T09:15:56.481Z,94762.34
2024-01-05T09:16:58.285Z,94759.69
2024-01-05T09:17:59.950Z,94757.44
2024-01-05T09:19:01.596Z,94762.75
2024-01-05T09:20:04.854Z,94767.03
2024-01-05T09:21:09.855Z,94765.81
2024-01-05T09:22:12.263Z,94762.72
2024-01-05T09:23:14.251Z,94772.13
2024-01-05T09:24:15.726Z,94772.53
2024-01-05T09:25:17.826Z,94772.34
2024-01-05T09:26:19.394Z,94776.22
2024-01-05T09:27:21.152Z,94785.22
2024-01-05T09:28:22.611Z,94778.69
2024-01-05T09:29:24.093Z,94781.13
2024-01-05T09:30:25.885Z,94785.41
2024-01-05T09:31:29.233Z,94787.88
2024-01-05T09:32:31.654Z,94788.28
2024-01-05T09:33:33.553Z,94791.53
2024-01-05T09:34:35.242Z,94778.91
2024-01-05T09:35:36.815Z,94784.00
2024-01-05T09:36:43.721Z,94778.06
2024-01-05T09:37:46.504Z,94782.16
2024-01-05T09:38:48.001Z,94781.16
2024-01-05T09:39:49.590Z,94786.84
2024-01-05T09:40:54.037Z,94784.00
2024-01-05T09:41:55.589Z,94781.16
2024-01-05T09:42:58.971Z,94784.41
2024-01-05T09:44:03.219Z,94780.53
2024-01-05T09:45:10.226Z,94782.34
2024-01-05T09:46:11.927Z,94784.59
2024-01-05T09:47:15.277Z,94783.59
2024-01-05T09:48:20.076Z,94773.75
2024-01-05T09:49:23.306Z,94787.47
2024-01-05T09:50:25.175Z,94780.72
2024-01-05T09:51:30.316Z,94776.19
2024-01-05T09:52:31.971Z,94778.47
2024-01-05T09:53:35.648Z,94789.03
2024-01-05T09:54:38.662Z,94788.25
2024-01-05T09:55:40.268Z,94785.38
2024-01-05T09:56:46.458Z,94784.13
2024-01-05T09:57:51.862Z,94781.06
2024-01-05T09:58:54.146Z,94782.50
2024-01-05T09:59:56.722Z,94782.28
2024-01-05T10:01:05.110Z,94783.78
2024-01-05T10:02:14.573Z,94788.47
2024-01-05T10:03:22.193Z,94778.66
2024-01-05T10:04:24.308Z,94782.72
2024-01-05T10:05:26.408Z,94780.72
2024-01-05T10:06:29.357Z,94786.00
2024-01-05T10:07:30.952Z,94785.59
2024-01-05T10:08:32.712Z,94784.59
2024-01-05T10:09:50.201Z,94785.59
2024-01-05T10:10:56.966Z,94785.19
2024-01-05T10:11:58.975Z,94790.94
2024-01-05T10:13:06.828Z,94777.25
2024-01-05T10:14:12.245Z,94782.94
2024-01-05T10:15:13.950Z,94778.66
2024-01-05T10:16:18.136Z,94783.78
2024-01-05T10:17:19.643Z,94783.34
2024-01-05T10:18:24.494Z,94785.00
2024-01-05T10:19:27.622Z,94785.59
2024-01-05T10:20:29.193Z,94791.31
2024-01-05T10:21:30.950Z,94782.56
2024-01-05T10:22:34.873Z,94785.00
2024-01-05T10:23:43.905Z,94788.88
2024-01-05T10:24:45.495Z,94783.34
2024-01-05T10:25:48.404Z,94783.56
2024-01-05T10:27:07.244Z,94783.56
2024-01-05T10:28:34.389Z,94783.56
2024-01-05T10:29:43.972Z,94785.75
2024-01-05T10:30:45.899Z,94784.50
2024-01-05T10:31:47.481Z,94786.56
2024-01-05T10:32:55.125Z,94789.78
2024-01-05T10:33:57.296Z,94787.31
2024-01-05T10:34:58.943Z,94778.69
2024-01-05T10:36:07.413Z,94785.63
2024-01-05T10:37:09.827Z,94781.06
2024-01-05T10:38:13.225Z,94785.22
2024-01-05T10:39:20.525Z,94771.13
2024-01-05T10:40:22.155Z,94766.13
2024-01-05T10:41:24.060Z,94766.75
2024-01-05T10:42:28.617Z,94767.59
2024-01-05T10:43:31.592Z,94761.19
2024-01-05T10:44:33.544Z,94763.84
2024-01-05T10:45:37.147Z,94760.16
2024-01-05T10:46:40.407Z,94761.03
2024-01-05T10:47:43.608Z,94757.38
2024-01-05T10:48:46.630Z,94752.16
2024-01-05T10:49:51.255Z,94753.84
2024-01-05T10:50:53.389Z,94748.38
2024-01-05T10:51:55.020Z,94749.84
2024-01-05T10:52:58.136Z,94747.09
2024-01-05T10:54:00.426Z,94748.41
2024-01-05T10:55:05.519Z,94750.63
2024-01-05T10:56:07.946Z,94754.31
2024-01-05T10:57:12.419Z,94754.47
2024-01-05T10:58:14.374Z,94756.03
2024-01-05T10:59:15.932Z,94762.41
2024-01-05T11:00:17.932Z,94762.72
2024-01-05T11:01:22.900Z,94762.50
2024-01-05T11:02:47.775Z,94756.66
2024-01-05T11:03:52.466Z,94763.59
2024-01-05T11:05:01.142Z,94755.19
2024-01-05T11:06:10.141Z,94759.50
2024-01-05T11:07:16.700Z,94764.66
2024-01-05T11:08:31.090Z,94766.91
2024-01-05T11:09:50.267Z,94766.25
2024-01-05T11:11:00.197Z,94767.50
2024-01-05T11:12:15.344Z,94764.22
2024-01-05T11:13:37.970Z,94760.78
2024-01-05T11:14:58.137Z,94760.38
2024-01-05T11:16:25.757Z,94758.63
2024-01-05T11:18:02.901Z,94765.00
2024-01-05T11:19:28.990Z,94755.97
2024-01-05T11:20:45.441Z,94754.69
2024-01-05T11:22:05.167Z,94760.59
2024-01-05T11:23:09.498Z,94756.47
2024-01-05T11:24:13.905Z,94760.38
2024-01-05T11:25:16.873Z,94758.13
2024-01-05T11:26:36.883Z,94750.84
2024-01-05T11:27:39.949Z,94761.47
2024-01-05T11:28:41.536Z,94751.66
2024-01-05T11:29:46.021Z,94758.81
2024-01-05T11:30:47.768Z,94756.34
2024-01-05T11:31:49.369Z,94748.00
2024-01-05T11:32:51.114Z,94755.72
2024-01-05T11:33:52.895Z,94753.25
2024-01-05T11:34:54.557Z,94748.75
2024-01-05T11:35:56.036Z,94756.16
2024-01-05T11:36:58.387Z,94745.50
2024-01-05T11:37:59.875Z,94738.97
2024-01-05T11:39:01.480Z,94739.38
2024-01-05T11:40:03.538Z,94738.78
2024-01-05T11:41:18.886Z,94729.84
2024-01-05T11:42:30.572Z,94736.38
2024-01-05T11:43:37.680Z,94731.31
2024-01-05T11:44:39.181Z,94735.38
2024-01-05T11:45:49.788Z,94736.81
2024-01-05T11:46:52.994Z,94729.66
2024-01-05T11:47:54.593Z,94725.44
2024-01-05T11:48:56.550Z,94721.34
2024-01-05T11:49:58.096Z,94728.53
2024-01-05T11:51:00.697Z,94724.63
2024-01-05T11:52:04.500Z,94726.69
2024-01-05T11:53:23.904Z,94721.97
2024-01-05T11:54:25.637Z,94718.72
2024-01-05T11:55:27.398Z,94720.50
2024-01-05T11:56:28.978Z,94724.22
2024-01-05T11:57:30.546Z,94729.44
2024-01-05T11:58:33.551Z,94728.88
2024-01-05T11:59:35.504Z,94725.44
2024-01-05T12:00:37.943Z,94735.47
2024-01-05T12:01:39.487Z,94730.13
2024-01-05T12:02:40.993Z,94736.06
2024-01-05T12:03:43.378Z,94741.97
2024-01-05T12:04:47.830Z,94740.31
2024-01-05T12:05:57.592Z,94734.00
2024-01-05T12:06:59.266Z,94739.91
2024-01-05T12:08:01.361Z,94739.50
2024-01-05T12:09:03.997Z,94736.25
2024-01-05T12:10:05.989Z,94735.88
2024-01-05T12:11:10.088Z,94737.09
2024-01-05T12:12:18.345Z,94730.75
2024-01-05T12:13:28.283Z,94738.94
2024-01-05T12:14:29.860Z,94733.41
2024-01-05T12:15:31.686Z,94733.97
2024-01-05T12:16:33.170Z,94731.31